Sidney V. — WDB6019 — position and weather

sailwx.info

Track history (hours):
 
Tides and Currents Weather Stations Pressure Air Temp Water Temp Dewpoint Dewpoint Depression Visibility Wind Speed Wind Dir Waves Ship Positions

Sidney V.

Owner: Louisiana Tug Service LLC, Cutt Off, LA. More information available from US FCC via Universal Licensing System and Coast Guard Vessel Documentation Center.

Last reported at 2018-Jan-20 15:01 UTC. Time now 2018-Jan-20 15:30 UTC.
Position N 40°38' W 074°12'.

Length 23 m; draft 3 m.

Type: Tug. MMSI: 366916420.

Date/timePositionNaut miles runAvg speedWind from/ knotsBaromVisibWave heightAir tempDewpointWater temp
2018-Jan-20 15:01N 40°38' W 074°12'0 0.0
2018-Jan-20 14:30N 40°38' W 074°12'0 0.0
2018-Jan-20 14:00N 40°38' W 074°12'0 0.0
2018-Jan-20 13:30N 40°38' W 074°12'0 0.0
2018-Jan-20 13:00N 40°38' W 074°12'0 0.0
2018-Jan-20 12:29N 40°38' W 074°12'0 0.0
2018-Jan-20 11:59N 40°38' W 074°12'0 0.0
2018-Jan-20 11:30N 40°38' W 074°12'0 0.0
2018-Jan-20 11:00N 40°38' W 074°12'4 7.4
2018-Jan-20 10:31N 40°39' W 074°07'3 5.3
2018-Jan-20 09:59N 40°40' W 074°04'1 1.1
2018-Jan-20 09:30N 40°41' W 074°04'0 0.0
2018-Jan-20 09:00N 40°41' W 074°04'0 0.0
2018-Jan-20 08:30N 40°41' W 074°04'0 0.0
2018-Jan-20 08:00N 40°41' W 074°04'0 0.0
2018-Jan-20 07:31N 40°41' W 074°04'0 0.0
2018-Jan-20 07:00N 40°41' W 074°04'0 0.0
2018-Jan-20 06:30N 40°41' W 074°04'0 0.0
2018-Jan-20 05:55N 40°41' W 074°04'0 0.0
2018-Jan-20 05:30N 40°41' W 074°04'0 0.0
2018-Jan-20 05:00N 40°41' W 074°04'1 1.7
2018-Jan-20 04:30N 40°40' W 074°04'5 9.5
2018-Jan-20 04:00N 40°35' W 074°02'5 9.2
2018-Jan-20 03:30N 40°31' W 073°60'  
2018-Jan-11 04:42N 40°38' W 074°12'37 2.8
2018-Jan-10 15:44N 40°03' W 074°01'0 0.0
2018-Jan-10 15:28N 40°03' W 074°01'  
Track history (hours):
 
Tides and Currents Weather Stations Pressure Air Temp Water Temp Dewpoint Dewpoint Depression Visibility Wind Speed Wind Dir Waves Ship Positions

Sidney V.

Owner: Louisiana Tug Service LLC, Cutt Off, LA. More information available from US FCC via Universal Licensing System and Coast Guard Vessel Documentation Center.

Last reported at 2018-Jan-20 15:01 UTC. Time now 2018-Jan-20 15:30 UTC.
Position N 40°38' W 074°12'.

Length 23 m; draft 3 m.

Type: Tug. MMSI: 366916420.

Date/timePositionNaut miles runAvg speedWind from/ knotsBaromVisibWave heightAir tempDewpointWater temp
2018-Jan-20 15:01N 40°38' W 074°12'0 0.0
2018-Jan-20 14:30N 40°38' W 074°12'0 0.0
2018-Jan-20 14:00N 40°38' W 074°12'0 0.0
2018-Jan-20 13:30N 40°38' W 074°12'0 0.0
2018-Jan-20 13:00N 40°38' W 074°12'0 0.0
2018-Jan-20 12:29N 40°38' W 074°12'0 0.0
2018-Jan-20 11:59N 40°38' W 074°12'0 0.0
2018-Jan-20 11:30N 40°38' W 074°12'0 0.0
2018-Jan-20 11:00N 40°38' W 074°12'4 7.4
2018-Jan-20 10:31N 40°39' W 074°07'3 5.3
2018-Jan-20 09:59N 40°40' W 074°04'1 1.1
2018-Jan-20 09:30N 40°41' W 074°04'0 0.0
2018-Jan-20 09:00N 40°41' W 074°04'0 0.0
2018-Jan-20 08:30N 40°41' W 074°04'0 0.0
2018-Jan-20 08:00N 40°41' W 074°04'0 0.0
2018-Jan-20 07:31N 40°41' W 074°04'0 0.0
2018-Jan-20 07:00N 40°41' W 074°04'0 0.0
2018-Jan-20 06:30N 40°41' W 074°04'0 0.0
2018-Jan-20 05:55N 40°41' W 074°04'0 0.0
2018-Jan-20 05:30N 40°41' W 074°04'0 0.0
2018-Jan-20 05:00N 40°41' W 074°04'1 1.7
2018-Jan-20 04:30N 40°40' W 074°04'5 9.5
2018-Jan-20 04:00N 40°35' W 074°02'5 9.2
2018-Jan-20 03:30N 40°31' W 073°60'  
2018-Jan-11 04:42N 40°38' W 074°12'37 2.8
2018-Jan-10 15:44N 40°03' W 074°01'0 0.0
2018-Jan-10 15:28N 40°03' W 074°01'  

Dump ship's entire track history